LTFJ/SAW METAR and TAF weather

Enter ICAO airport designator
Station Type Date Time Source
LTFJ METAR 2020/12/06 01:50 UTC NOAA

LTFJ 060150Z 00000KT 6000 SCT011 10/10 Q1020 BECMG 4000 BR


Station Type Date Time Source
LTFJ Decoded METAR 2020/12/06 01:50 UTC NOAA

Istanbul / Sabiha Gokcen, Turkey (LTFJ) 40-53-55N 029-18-33E
Dec 05, 2020 - 08:50 PM EST / 2020.12.06 0150 UTC
Wind: Calm:0
Visibility: 3 mile(s):0
Sky conditions: partly cloudy
Temperature: 50 F (10 C)
Dew Point: 50 F (10 C)
Relative Humidity: 100%
Pressure (altimeter): 30.12 in. Hg (1020 hPa)
ob: LTFJ 060150Z 00000KT 6000 SCT011 10/10 Q1020 BECMG 4000 BR
cycle: 2

Station Type Date Time Source
LTFJ TAF 2020/12/05 18:03 UTC NOAA

TAF LTFJ 051640Z 0518/0618 04009KT 9999 SCT010
BECMG 0520/0523 4000 BR PROB40 0604/0608 0900 FG BKN008
BECMG 0608/0610 BKN030

Example: see airport list